sensor_id;sensor_type;location;lat;lon;timestamp;P1;durP1;ratioP1;P2;durP2;ratioP2
13309;SDS011;6723;48.256;16.402;2023-07-28T00:02:10;2.30;;;2.10;;
13309;SDS011;6723;48.256;16.402;2023-07-28T00:04:36;3.90;;;1.80;;
13309;SDS011;6723;48.256;16.402;2023-07-28T00:07:03;2.43;;;2.03;;
13309;SDS011;6723;48.256;16.402;2023-07-28T00:09:29;1.70;;;1.60;;
13309;SDS011;6723;48.256;16.402;2023-07-28T00:11:56;3.33;;;2.10;;
13309;SDS011;6723;48.256;16.402;2023-07-28T00:14:23;2.80;;;1.90;;
13309;SDS011;6723;48.256;16.402;2023-07-28T00:16:50;2.37;;;2.17;;
13309;SDS011;6723;48.256;16.402;2023-07-28T00:19:18;3.57;;;2.13;;
13309;SDS011;6723;48.256;16.402;2023-07-28T00:21:46;2.47;;;2.00;;
13309;SDS011;6723;48.256;16.402;2023-07-28T00:24:12;3.87;;;1.90;;
13309;SDS011;6723;48.256;16.402;2023-07-28T00:26:38;2.37;;;2.17;;
13309;SDS011;6723;48.256;16.402;2023-07-28T00:29:04;3.20;;;2.13;;
13309;SDS011;6723;48.256;16.402;2023-07-28T00:31:31;3.73;;;2.03;;
13309;SDS011;6723;48.256;16.402;2023-07-28T00:33:58;2.93;;;2.30;;
13309;SDS011;6723;48.256;16.402;2023-07-28T00:36:24;2.53;;;2.10;;
13309;SDS011;6723;48.256;16.402;2023-07-28T00:38:50;2.27;;;2.07;;
13309;SDS011;6723;48.256;16.402;2023-07-28T00:41:15;3.20;;;2.30;;
13309;SDS011;6723;48.256;16.402;2023-07-28T00:43:41;4.43;;;2.33;;
13309;SDS011;6723;48.256;16.402;2023-07-28T00:46:07;2.97;;;2.00;;
13309;SDS011;6723;48.256;16.402;2023-07-28T00:48:34;3.00;;;2.20;;
13309;SDS011;6723;48.256;16.402;2023-07-28T00:51:00;2.53;;;2.03;;
13309;SDS011;6723;48.256;16.402;2023-07-28T00:53:26;2.43;;;2.23;;
13309;SDS011;6723;48.256;16.402;2023-07-28T00:55:54;2.93;;;1.80;;
13309;SDS011;6723;48.256;16.402;2023-07-28T00:58:21;2.90;;;2.10;;
13309;SDS011;6723;48.256;16.402;2023-07-28T01:00:46;3.00;;;2.13;;
13309;SDS011;6723;48.256;16.402;2023-07-28T01:03:13;2.43;;;1.90;;
13309;SDS011;6723;48.256;16.402;2023-07-28T01:05:52;2.33;;;2.10;;
13309;SDS011;6723;48.256;16.402;2023-07-28T01:08:29;2.17;;;1.97;;
13309;SDS011;6723;48.256;16.402;2023-07-28T01:11:16;2.30;;;2.10;;
13309;SDS011;6723;48.256;16.402;2023-07-28T01:13:41;2.67;;;2.30;;
13309;SDS011;6723;48.256;16.402;2023-07-28T01:16:07;3.17;;;2.00;;
13309;SDS011;6723;48.256;16.402;2023-07-28T01:18:34;2.17;;;1.90;;
13309;SDS011;6723;48.256;16.402;2023-07-28T01:21:01;2.50;;;1.90;;
13309;SDS011;6723;48.256;16.402;2023-07-28T01:26:34;2.60;;;2.40;;
13309;SDS011;6723;48.256;16.402;2023-07-28T01:29:01;3.00;;;2.30;;
13309;SDS011;6723;48.256;16.402;2023-07-28T01:31:30;2.80;;;2.50;;
13309;SDS011;6723;48.256;16.402;2023-07-28T01:33:56;2.20;;;1.97;;
13309;SDS011;6723;48.256;16.402;2023-07-28T01:36:22;4.17;;;2.70;;
13309;SDS011;6723;48.256;16.402;2023-07-28T01:38:48;3.50;;;2.30;;
13309;SDS011;6723;48.256;16.402;2023-07-28T01:41:14;3.93;;;2.50;;
13309;SDS011;6723;48.256;16.402;2023-07-28T01:43:40;2.70;;;2.40;;
13309;SDS011;6723;48.256;16.402;2023-07-28T01:46:07;2.70;;;2.50;;
13309;SDS011;6723;48.256;16.402;2023-07-28T01:48:33;4.07;;;2.63;;
13309;SDS011;6723;48.256;16.402;2023-07-28T01:50:59;2.97;;;2.50;;
13309;SDS011;6723;48.256;16.402;2023-07-28T01:53:24;3.67;;;2.53;;
13309;SDS011;6723;48.256;16.402;2023-07-28T01:55:50;4.37;;;2.63;;
13309;SDS011;6723;48.256;16.402;2023-07-28T01:58:16;4.00;;;2.50;;
13309;SDS011;6723;48.256;16.402;2023-07-28T02:00:41;2.70;;;2.17;;
13309;SDS011;6723;48.256;16.402;2023-07-28T02:03:07;2.87;;;2.20;;
13309;SDS011;6723;48.256;16.402;2023-07-28T02:05:33;3.63;;;2.33;;
13309;SDS011;6723;48.256;16.402;2023-07-28T02:07:59;3.63;;;2.37;;
13309;SDS011;6723;48.256;16.402;2023-07-28T02:10:26;2.97;;;2.43;;
13309;SDS011;6723;48.256;16.402;2023-07-28T02:12:52;2.63;;;2.40;;
13309;SDS011;6723;48.256;16.402;2023-07-28T02:15:18;4.13;;;2.60;;
13309;SDS011;6723;48.256;16.402;2023-07-28T02:17:44;2.70;;;2.30;;
13309;SDS011;6723;48.256;16.402;2023-07-28T02:20:09;2.67;;;2.23;;
13309;SDS011;6723;48.256;16.402;2023-07-28T02:22:38;2.67;;;2.40;;
13309;SDS011;6723;48.256;16.402;2023-07-28T02:25:05;3.07;;;2.50;;
13309;SDS011;6723;48.256;16.402;2023-07-28T02:27:31;4.60;;;2.20;;
13309;SDS011;6723;48.256;16.402;2023-07-28T02:29:57;2.67;;;2.40;;
13309;SDS011;6723;48.256;16.402;2023-07-28T02:32:22;3.80;;;2.50;;
13309;SDS011;6723;48.256;16.402;2023-07-28T02:34:48;2.80;;;2.50;;
13309;SDS011;6723;48.256;16.402;2023-07-28T02:37:15;2.60;;;2.40;;
13309;SDS011;6723;48.256;16.402;2023-07-28T02:39:41;3.60;;;2.20;;
13309;SDS011;6723;48.256;16.402;2023-07-28T02:42:07;2.43;;;2.17;;
13309;SDS011;6723;48.256;16.402;2023-07-28T02:44:33;4.10;;;2.40;;
13309;SDS011;6723;48.256;16.402;2023-07-28T02:46:59;3.10;;;2.60;;
13309;SDS011;6723;48.256;16.402;2023-07-28T02:49:24;2.73;;;2.30;;
13309;SDS011;6723;48.256;16.402;2023-07-28T02:51:50;2.50;;;2.23;;
13309;SDS011;6723;48.256;16.402;2023-07-28T02:54:16;2.90;;;2.30;;
13309;SDS011;6723;48.256;16.402;2023-07-28T02:56:41;3.37;;;2.33;;
13309;SDS011;6723;48.256;16.402;2023-07-28T02:59:07;4.90;;;2.30;;
13309;SDS011;6723;48.256;16.402;2023-07-28T03:01:33;2.90;;;2.20;;
13309;SDS011;6723;48.256;16.402;2023-07-28T03:04:00;3.60;;;2.43;;
13309;SDS011;6723;48.256;16.402;2023-07-28T03:06:26;3.87;;;2.50;;
13309;SDS011;6723;48.256;16.402;2023-07-28T03:08:52;2.90;;;2.40;;
13309;SDS011;6723;48.256;16.402;2023-07-28T03:11:17;2.60;;;2.40;;
13309;SDS011;6723;48.256;16.402;2023-07-28T03:13:43;3.20;;;2.50;;
13309;SDS011;6723;48.256;16.402;2023-07-28T03:16:09;5.03;;;2.50;;
13309;SDS011;6723;48.256;16.402;2023-07-28T03:18:35;3.07;;;2.40;;
13309;SDS011;6723;48.256;16.402;2023-07-28T03:21:01;2.53;;;2.23;;
13309;SDS011;6723;48.256;16.402;2023-07-28T03:23:27;2.53;;;2.20;;
13309;SDS011;6723;48.256;16.402;2023-07-28T03:25:53;2.40;;;2.17;;
13309;SDS011;6723;48.256;16.402;2023-07-28T03:28:19;3.47;;;2.27;;
13309;SDS011;6723;48.256;16.402;2023-07-28T03:30:44;3.20;;;2.33;;
13309;SDS011;6723;48.256;16.402;2023-07-28T03:33:11;3.53;;;2.20;;
13309;SDS011;6723;48.256;16.402;2023-07-28T03:35:36;3.03;;;2.10;;
13309;SDS011;6723;48.256;16.402;2023-07-28T03:38:02;2.60;;;2.40;;
13309;SDS011;6723;48.256;16.402;2023-07-28T03:40:28;2.50;;;2.23;;
13309;SDS011;6723;48.256;16.402;2023-07-28T03:42:54;4.10;;;2.80;;
13309;SDS011;6723;48.256;16.402;2023-07-28T03:45:20;2.53;;;2.33;;
13309;SDS011;6723;48.256;16.402;2023-07-28T03:47:46;3.47;;;2.43;;
13309;SDS011;6723;48.256;16.402;2023-07-28T03:50:11;2.90;;;2.60;;
13309;SDS011;6723;48.256;16.402;2023-07-28T03:52:37;4.60;;;3.17;;
13309;SDS011;6723;48.256;16.402;2023-07-28T03:55:03;3.20;;;2.87;;
13309;SDS011;6723;48.256;16.402;2023-07-28T03:57:29;4.93;;;2.70;;
13309;SDS011;6723;48.256;16.402;2023-07-28T03:59:55;3.10;;;2.70;;
13309;SDS011;6723;48.256;16.402;2023-07-28T04:02:20;3.80;;;2.50;;
13309;SDS011;6723;48.256;16.402;2023-07-28T04:04:46;3.03;;;2.40;;
13309;SDS011;6723;48.256;16.402;2023-07-28T04:07:12;3.47;;;2.50;;
13309;SDS011;6723;48.256;16.402;2023-07-28T04:09:38;4.93;;;2.67;;
13309;SDS011;6723;48.256;16.402;2023-07-28T04:12:03;4.17;;;2.63;;
13309;SDS011;6723;48.256;16.402;2023-07-28T04:14:29;2.80;;;2.50;;
13309;SDS011;6723;48.256;16.402;2023-07-28T04:16:55;3.00;;;2.33;;
13309;SDS011;6723;48.256;16.402;2023-07-28T04:19:21;2.80;;;2.57;;
13309;SDS011;6723;48.256;16.402;2023-07-28T04:21:46;4.03;;;2.50;;
13309;SDS011;6723;48.256;16.402;2023-07-28T04:24:12;3.10;;;2.70;;
13309;SDS011;6723;48.256;16.402;2023-07-28T04:26:38;3.53;;;3.10;;
13309;SDS011;6723;48.256;16.402;2023-07-28T04:29:03;3.57;;;2.73;;
13309;SDS011;6723;48.256;16.402;2023-07-28T04:31:29;5.00;;;3.40;;
13309;SDS011;6723;48.256;16.402;2023-07-28T04:33:55;4.80;;;2.90;;
13309;SDS011;6723;48.256;16.402;2023-07-28T04:36:21;6.80;;;4.43;;
13309;SDS011;6723;48.256;16.402;2023-07-28T04:38:46;4.00;;;3.10;;
13309;SDS011;6723;48.256;16.402;2023-07-28T04:41:12;4.20;;;2.90;;
13309;SDS011;6723;48.256;16.402;2023-07-28T04:43:38;4.57;;;2.77;;
13309;SDS011;6723;48.256;16.402;2023-07-28T04:46:03;3.03;;;2.70;;
13309;SDS011;6723;48.256;16.402;2023-07-28T04:48:29;6.70;;;2.93;;
13309;SDS011;6723;48.256;16.402;2023-07-28T04:50:55;4.03;;;2.70;;
13309;SDS011;6723;48.256;16.402;2023-07-28T04:53:20;3.50;;;2.90;;
13309;SDS011;6723;48.256;16.402;2023-07-28T04:55:46;3.50;;;2.33;;
13309;SDS011;6723;48.256;16.402;2023-07-28T04:58:12;4.70;;;2.60;;
13309;SDS011;6723;48.256;16.402;2023-07-28T05:00:37;3.47;;;2.80;;
13309;SDS011;6723;48.256;16.402;2023-07-28T05:03:03;3.37;;;2.80;;
13309;SDS011;6723;48.256;16.402;2023-07-28T05:05:29;4.23;;;2.60;;
13309;SDS011;6723;48.256;16.402;2023-07-28T05:07:55;3.73;;;2.67;;
13309;SDS011;6723;48.256;16.402;2023-07-28T05:10:21;3.73;;;2.80;;
13309;SDS011;6723;48.256;16.402;2023-07-28T05:12:46;3.50;;;2.60;;
13309;SDS011;6723;48.256;16.402;2023-07-28T05:15:13;3.77;;;2.63;;
13309;SDS011;6723;48.256;16.402;2023-07-28T05:17:40;2.80;;;2.53;;
13309;SDS011;6723;48.256;16.402;2023-07-28T05:20:06;2.80;;;2.27;;
13309;SDS011;6723;48.256;16.402;2023-07-28T05:22:32;4.37;;;2.70;;
13309;SDS011;6723;48.256;16.402;2023-07-28T05:24:58;3.13;;;2.77;;
13309;SDS011;6723;48.256;16.402;2023-07-28T05:27:24;4.07;;;2.60;;
13309;SDS011;6723;48.256;16.402;2023-07-28T05:29:50;3.57;;;2.93;;
13309;SDS011;6723;48.256;16.402;2023-07-28T05:32:15;5.27;;;2.80;;
13309;SDS011;6723;48.256;16.402;2023-07-28T05:34:42;4.73;;;2.50;;
13309;SDS011;6723;48.256;16.402;2023-07-28T05:37:09;3.17;;;2.60;;
13309;SDS011;6723;48.256;16.402;2023-07-28T05:39:34;4.17;;;2.83;;
13309;SDS011;6723;48.256;16.402;2023-07-28T05:42:01;5.47;;;3.27;;
13309;SDS011;6723;48.256;16.402;2023-07-28T05:44:26;6.67;;;2.90;;
13309;SDS011;6723;48.256;16.402;2023-07-28T05:46:53;3.80;;;2.60;;
13309;SDS011;6723;48.256;16.402;2023-07-28T05:49:18;5.80;;;2.53;;
13309;SDS011;6723;48.256;16.402;2023-07-28T05:51:44;3.90;;;2.80;;
13309;SDS011;6723;48.256;16.402;2023-07-28T05:54:11;6.60;;;3.00;;
13309;SDS011;6723;48.256;16.402;2023-07-28T05:56:39;5.50;;;2.87;;
13309;SDS011;6723;48.256;16.402;2023-07-28T05:59:06;4.17;;;2.97;;
13309;SDS011;6723;48.256;16.402;2023-07-28T06:01:32;5.27;;;3.50;;
13309;SDS011;6723;48.256;16.402;2023-07-28T06:03:58;4.03;;;2.70;;
13309;SDS011;6723;48.256;16.402;2023-07-28T06:06:27;6.23;;;3.00;;
13309;SDS011;6723;48.256;16.402;2023-07-28T06:08:53;3.10;;;2.50;;
13309;SDS011;6723;48.256;16.402;2023-07-28T06:11:19;3.83;;;2.93;;
13309;SDS011;6723;48.256;16.402;2023-07-28T06:13:46;6.77;;;2.83;;
13309;SDS011;6723;48.256;16.402;2023-07-28T06:16:13;5.23;;;2.77;;
13309;SDS011;6723;48.256;16.402;2023-07-28T06:18:39;6.40;;;2.90;;
13309;SDS011;6723;48.256;16.402;2023-07-28T06:21:05;3.60;;;2.90;;
13309;SDS011;6723;48.256;16.402;2023-07-28T06:23:31;3.47;;;2.50;;
13309;SDS011;6723;48.256;16.402;2023-07-28T06:25:57;4.77;;;2.87;;
13309;SDS011;6723;48.256;16.402;2023-07-28T06:28:23;4.53;;;2.73;;
13309;SDS011;6723;48.256;16.402;2023-07-28T06:30:54;2.87;;;2.50;;
13309;SDS011;6723;48.256;16.402;2023-07-28T06:33:21;3.60;;;2.70;;
13309;SDS011;6723;48.256;16.402;2023-07-28T06:35:46;4.70;;;2.70;;
13309;SDS011;6723;48.256;16.402;2023-07-28T06:38:12;5.60;;;3.00;;
13309;SDS011;6723;48.256;16.402;2023-07-28T06:40:38;5.67;;;2.90;;
13309;SDS011;6723;48.256;16.402;2023-07-28T06:43:04;3.67;;;2.77;;
13309;SDS011;6723;48.256;16.402;2023-07-28T06:45:30;3.50;;;3.00;;
13309;SDS011;6723;48.256;16.402;2023-07-28T06:47:55;5.57;;;2.80;;
13309;SDS011;6723;48.256;16.402;2023-07-28T06:50:21;3.07;;;2.77;;
13309;SDS011;6723;48.256;16.402;2023-07-28T06:52:47;3.33;;;2.80;;
13309;SDS011;6723;48.256;16.402;2023-07-28T06:55:18;6.03;;;2.80;;
13309;SDS011;6723;48.256;16.402;2023-07-28T06:57:46;4.97;;;3.03;;
13309;SDS011;6723;48.256;16.402;2023-07-28T07:00:13;5.07;;;3.00;;
13309;SDS011;6723;48.256;16.402;2023-07-28T07:02:39;5.23;;;2.77;;
13309;SDS011;6723;48.256;16.402;2023-07-28T07:05:05;3.30;;;3.00;;
13309;SDS011;6723;48.256;16.402;2023-07-28T07:07:32;4.20;;;2.70;;
13309;SDS011;6723;48.256;16.402;2023-07-28T07:09:58;5.47;;;3.00;;
13309;SDS011;6723;48.256;16.402;2023-07-28T07:12:24;4.67;;;3.00;;
13309;SDS011;6723;48.256;16.402;2023-07-28T07:14:50;6.83;;;3.20;;
13309;SDS011;6723;48.256;16.402;2023-07-28T07:17:16;7.30;;;2.70;;
13309;SDS011;6723;48.256;16.402;2023-07-28T07:19:42;6.60;;;3.00;;
13309;SDS011;6723;48.256;16.402;2023-07-28T07:22:08;5.23;;;2.80;;
13309;SDS011;6723;48.256;16.402;2023-07-28T07:24:34;4.13;;;2.67;;
13309;SDS011;6723;48.256;16.402;2023-07-28T07:27:00;3.63;;;2.83;;
13309;SDS011;6723;48.256;16.402;2023-07-28T07:29:26;4.22;;;2.67;;
13309;SDS011;6723;48.256;16.402;2023-07-28T07:31:51;6.15;;;2.92;;
13309;SDS011;6723;48.256;16.402;2023-07-28T07:34:21;3.60;;;2.60;;
13309;SDS011;6723;48.256;16.402;2023-07-28T07:36:48;6.18;;;2.13;;
13309;SDS011;6723;48.256;16.402;2023-07-28T07:39:15;2.88;;;2.30;;
13309;SDS011;6723;48.256;16.402;2023-07-28T07:41:41;3.78;;;2.17;;
13309;SDS011;6723;48.256;16.402;2023-07-28T07:44:08;2.08;;;1.88;;
13309;SDS011;6723;48.256;16.402;2023-07-28T07:46:33;3.25;;;2.00;;
13309;SDS011;6723;48.256;16.402;2023-07-28T07:48:59;3.22;;;2.08;;
13309;SDS011;6723;48.256;16.402;2023-07-28T07:51:25;3.47;;;2.10;;
13309;SDS011;6723;48.256;16.402;2023-07-28T07:53:50;2.10;;;1.90;;
13309;SDS011;6723;48.256;16.402;2023-07-28T07:56:16;2.92;;;1.70;;
13309;SDS011;6723;48.256;16.402;2023-07-28T07:58:43;2.22;;;1.85;;
13309;SDS011;6723;48.256;16.402;2023-07-28T08:01:08;2.75;;;1.70;;
13309;SDS011;6723;48.256;16.402;2023-07-28T08:03:34;2.22;;;2.00;;
13309;SDS011;6723;48.256;16.402;2023-07-28T08:06:03;2.22;;;1.63;;
13309;SDS011;6723;48.256;16.402;2023-07-28T08:08:29;2.88;;;1.65;;
13309;SDS011;6723;48.256;16.402;2023-07-28T08:10:55;2.33;;;1.50;;
13309;SDS011;6723;48.256;16.402;2023-07-28T08:13:21;2.28;;;1.77;;
13309;SDS011;6723;48.256;16.402;2023-07-28T08:15:47;2.50;;;1.50;;
13309;SDS011;6723;48.256;16.402;2023-07-28T08:18:12;2.38;;;1.50;;
13309;SDS011;6723;48.256;16.402;2023-07-28T08:20:39;1.33;;;1.23;;
13309;SDS011;6723;48.256;16.402;2023-07-28T08:23:04;1.60;;;1.50;;
13309;SDS011;6723;48.256;16.402;2023-07-28T08:25:30;2.08;;;1.40;;
13309;SDS011;6723;48.256;16.402;2023-07-28T08:27:56;1.50;;;1.40;;
13309;SDS011;6723;48.256;16.402;2023-07-28T08:30:22;1.83;;;1.50;;
13309;SDS011;6723;48.256;16.402;2023-07-28T08:32:47;3.15;;;1.50;;
13309;SDS011;6723;48.256;16.402;2023-07-28T08:35:14;1.90;;;1.70;;
13309;SDS011;6723;48.256;16.402;2023-07-28T08:37:40;2.25;;;1.50;;
13309;SDS011;6723;48.256;16.402;2023-07-28T08:40:06;1.73;;;1.63;;
13309;SDS011;6723;48.256;16.402;2023-07-28T08:42:36;2.72;;;1.77;;
13309;SDS011;6723;48.256;16.402;2023-07-28T08:45:03;1.85;;;1.60;;
13309;SDS011;6723;48.256;16.402;2023-07-28T08:47:30;2.00;;;1.80;;
13309;SDS011;6723;48.256;16.402;2023-07-28T08:49:57;2.03;;;1.70;;
13309;SDS011;6723;48.256;16.402;2023-07-28T08:52:23;2.40;;;1.83;;
13309;SDS011;6723;48.256;16.402;2023-07-28T08:54:49;3.10;;;1.85;;
13309;SDS011;6723;48.256;16.402;2023-07-28T08:57:16;1.80;;;1.67;;
13309;SDS011;6723;48.256;16.402;2023-07-28T08:59:44;2.88;;;1.75;;
13309;SDS011;6723;48.256;16.402;2023-07-28T09:02:13;2.15;;;1.80;;
13309;SDS011;6723;48.256;16.402;2023-07-28T09:04:41;2.78;;;2.00;;
13309;SDS011;6723;48.256;16.402;2023-07-28T09:07:07;3.30;;;1.80;;
13309;SDS011;6723;48.256;16.402;2023-07-28T09:09:33;6.05;;;1.90;;
13309;SDS011;6723;48.256;16.402;2023-07-28T09:12:00;2.50;;;1.80;;
13309;SDS011;6723;48.256;16.402;2023-07-28T09:14:26;1.90;;;1.70;;
13309;SDS011;6723;48.256;16.402;2023-07-28T09:16:52;2.47;;;1.70;;
13309;SDS011;6723;48.256;16.402;2023-07-28T09:19:19;2.08;;;1.75;;
13309;SDS011;6723;48.256;16.402;2023-07-28T09:21:56;1.77;;;1.67;;
13309;SDS011;6723;48.256;16.402;2023-07-28T09:24:32;2.83;;;2.03;;
13309;SDS011;6723;48.256;16.402;2023-07-28T09:26:59;4.20;;;2.00;;
13309;SDS011;6723;48.256;16.402;2023-07-28T09:29:26;4.35;;;1.90;;
13309;SDS011;6723;48.256;16.402;2023-07-28T09:32:05;2.28;;;2.08;;
13309;SDS011;6723;48.256;16.402;2023-07-28T09:34:31;2.35;;;2.15;;
13309;SDS011;6723;48.256;16.402;2023-07-28T09:37:00;4.47;;;1.98;;
13309;SDS011;6723;48.256;16.402;2023-07-28T09:39:27;2.20;;;1.95;;
13309;SDS011;6723;48.256;16.402;2023-07-28T09:41:53;3.78;;;1.83;;
13309;SDS011;6723;48.256;16.402;2023-07-28T09:44:23;3.05;;;2.00;;
13309;SDS011;6723;48.256;16.402;2023-07-28T09:46:50;2.08;;;1.85;;
13309;SDS011;6723;48.256;16.402;2023-07-28T09:49:27;3.38;;;1.80;;
13309;SDS011;6723;48.256;16.402;2023-07-28T09:52:02;3.75;;;2.25;;
13309;SDS011;6723;48.256;16.402;2023-07-28T09:54:30;2.63;;;1.75;;
13309;SDS011;6723;48.256;16.402;2023-07-28T09:56:57;3.95;;;2.22;;
13309;SDS011;6723;48.256;16.402;2023-07-28T09:59:31;2.75;;;2.10;;
13309;SDS011;6723;48.256;16.402;2023-07-28T10:02:00;3.95;;;2.10;;
13309;SDS011;6723;48.256;16.402;2023-07-28T10:04:27;3.95;;;2.10;;
13309;SDS011;6723;48.256;16.402;2023-07-28T10:06:54;2.50;;;2.30;;
13309;SDS011;6723;48.256;16.402;2023-07-28T10:09:24;2.83;;;2.42;;
13309;SDS011;6723;48.256;16.402;2023-07-28T10:11:50;3.15;;;2.50;;
13309;SDS011;6723;48.256;16.402;2023-07-28T10:14:35;2.42;;;2.20;;
13309;SDS011;6723;48.256;16.402;2023-07-28T10:17:05;3.75;;;2.65;;
13309;SDS011;6723;48.256;16.402;2023-07-28T10:19:34;4.47;;;2.30;;
13309;SDS011;6723;48.256;16.402;2023-07-28T10:22:01;4.03;;;2.50;;
13309;SDS011;6723;48.256;16.402;2023-07-28T10:30:14;2.93;;;2.10;;
13309;SDS011;6723;48.256;16.402;2023-07-28T10:32:44;3.03;;;2.73;;
13309;SDS011;6723;48.256;16.402;2023-07-28T10:37:45;2.43;;;2.23;;
13309;SDS011;6723;48.256;16.402;2023-07-28T10:42:53;2.33;;;2.13;;
13309;SDS011;6723;48.256;16.402;2023-07-28T10:45:21;2.90;;;2.60;;
13309;SDS011;6723;48.256;16.402;2023-07-28T10:47:48;3.97;;;2.30;;
13309;SDS011;6723;48.256;16.402;2023-07-28T10:50:14;2.60;;;2.40;;
13309;SDS011;6723;48.256;16.402;2023-07-28T10:52:41;4.97;;;2.50;;
13309;SDS011;6723;48.256;16.402;2023-07-28T10:55:26;2.20;;;2.00;;
13309;SDS011;6723;48.256;16.402;2023-07-28T10:57:53;2.97;;;2.20;;
13309;SDS011;6723;48.256;16.402;2023-07-28T11:00:20;2.30;;;2.10;;
13309;SDS011;6723;48.256;16.402;2023-07-28T11:02:48;3.53;;;2.03;;
13309;SDS011;6723;48.256;16.402;2023-07-28T11:05:19;4.03;;;2.50;;
13309;SDS011;6723;48.256;16.402;2023-07-28T11:07:48;3.10;;;2.47;;
13309;SDS011;6723;48.256;16.402;2023-07-28T11:10:14;2.87;;;2.30;;
13309;SDS011;6723;48.256;16.402;2023-07-28T11:12:40;3.73;;;2.33;;
13309;SDS011;6723;48.256;16.402;2023-07-28T11:15:10;2.00;;;1.90;;
13309;SDS011;6723;48.256;16.402;2023-07-28T11:17:42;3.57;;;2.00;;
13309;SDS011;6723;48.256;16.402;2023-07-28T11:20:15;2.77;;;2.00;;
13309;SDS011;6723;48.256;16.402;2023-07-28T11:22:47;3.93;;;1.80;;
13309;SDS011;6723;48.256;16.402;2023-07-28T11:25:22;2.60;;;2.20;;
13309;SDS011;6723;48.256;16.402;2023-07-28T11:27:49;2.13;;;1.93;;
13309;SDS011;6723;48.256;16.402;2023-07-28T11:30:16;2.40;;;2.20;;
13309;SDS011;6723;48.256;16.402;2023-07-28T11:32:43;3.07;;;2.33;;
13309;SDS011;6723;48.256;16.402;2023-07-28T11:35:11;2.90;;;1.97;;
13309;SDS011;6723;48.256;16.402;2023-07-28T11:37:39;2.10;;;1.90;;
13309;SDS011;6723;48.256;16.402;2023-07-28T11:40:06;3.33;;;1.90;;
13309;SDS011;6723;48.256;16.402;2023-07-28T11:42:39;3.67;;;1.80;;
13309;SDS011;6723;48.256;16.402;2023-07-28T11:45:06;1.90;;;1.80;;
13309;SDS011;6723;48.256;16.402;2023-07-28T11:47:33;2.60;;;2.10;;
13309;SDS011;6723;48.256;16.402;2023-07-28T11:49:59;2.70;;;2.13;;
13309;SDS011;6723;48.256;16.402;2023-07-28T11:52:35;2.23;;;2.03;;
13309;SDS011;6723;48.256;16.402;2023-07-28T11:55:05;5.00;;;2.13;;
13309;SDS011;6723;48.256;16.402;2023-07-28T11:57:31;2.20;;;2.00;;
13309;SDS011;6723;48.256;16.402;2023-07-28T12:00:01;3.33;;;1.80;;
13309;SDS011;6723;48.256;16.402;2023-07-28T12:02:30;3.87;;;2.13;;
13309;SDS011;6723;48.256;16.402;2023-07-28T12:04:58;3.27;;;2.10;;
13309;SDS011;6723;48.256;16.402;2023-07-28T12:07:31;3.87;;;2.20;;
13309;SDS011;6723;48.256;16.402;2023-07-28T12:10:02;2.50;;;2.30;;
13309;SDS011;6723;48.256;16.402;2023-07-28T12:12:31;3.97;;;2.27;;
13309;SDS011;6723;48.256;16.402;2023-07-28T12:15:27;3.77;;;2.40;;
13309;SDS011;6723;48.256;16.402;2023-07-28T12:18:05;2.33;;;1.93;;
13309;SDS011;6723;48.256;16.402;2023-07-28T12:20:53;2.70;;;2.50;;
13309;SDS011;6723;48.256;16.402;2023-07-28T12:23:19;3.10;;;2.27;;
13309;SDS011;6723;48.256;16.402;2023-07-28T12:25:46;5.10;;;2.03;;
13309;SDS011;6723;48.256;16.402;2023-07-28T12:28:12;2.60;;;2.23;;
13309;SDS011;6723;48.256;16.402;2023-07-28T12:30:38;4.10;;;2.40;;
13309;SDS011;6723;48.256;16.402;2023-07-28T12:33:05;4.37;;;2.60;;
13309;SDS011;6723;48.256;16.402;2023-07-28T12:35:32;2.43;;;2.23;;
13309;SDS011;6723;48.256;16.402;2023-07-28T12:38:05;3.30;;;2.20;;
13309;SDS011;6723;48.256;16.402;2023-07-28T12:40:33;3.80;;;2.20;;
13309;SDS011;6723;48.256;16.402;2023-07-28T12:43:00;2.90;;;2.37;;
13309;SDS011;6723;48.256;16.402;2023-07-28T12:45:27;3.93;;;2.40;;
13309;SDS011;6723;48.256;16.402;2023-07-28T12:47:53;2.93;;;2.53;;
13309;SDS011;6723;48.256;16.402;2023-07-28T12:50:20;2.53;;;2.10;;
13309;SDS011;6723;48.256;16.402;2023-07-28T12:52:47;2.33;;;2.13;;
13309;SDS011;6723;48.256;16.402;2023-07-28T12:55:13;3.67;;;2.43;;
13309;SDS011;6723;48.256;16.402;2023-07-28T12:57:40;5.10;;;2.53;;
13309;SDS011;6723;48.256;16.402;2023-07-28T13:00:06;2.73;;;2.23;;
13309;SDS011;6723;48.256;16.402;2023-07-28T13:02:40;3.77;;;2.20;;
13309;SDS011;6723;48.256;16.402;2023-07-28T13:05:11;3.77;;;2.40;;
13309;SDS011;6723;48.256;16.402;2023-07-28T13:07:38;2.73;;;2.40;;
13309;SDS011;6723;48.256;16.402;2023-07-28T13:10:07;4.43;;;2.40;;
13309;SDS011;6723;48.256;16.402;2023-07-28T13:12:35;2.80;;;2.20;;
13309;SDS011;6723;48.256;16.402;2023-07-28T13:15:01;2.53;;;2.10;;
13309;SDS011;6723;48.256;16.402;2023-07-28T13:17:27;2.57;;;2.10;;
13309;SDS011;6723;48.256;16.402;2023-07-28T13:19:53;3.43;;;2.20;;
13309;SDS011;6723;48.256;16.402;2023-07-28T13:22:19;3.57;;;2.23;;
13309;SDS011;6723;48.256;16.402;2023-07-28T13:24:45;3.90;;;2.40;;
13309;SDS011;6723;48.256;16.402;2023-07-28T13:27:10;3.10;;;2.33;;
13309;SDS011;6723;48.256;16.402;2023-07-28T13:29:36;2.80;;;2.43;;
13309;SDS011;6723;48.256;16.402;2023-07-28T13:32:02;2.33;;;2.13;;
13309;SDS011;6723;48.256;16.402;2023-07-28T13:34:28;3.57;;;2.27;;
13309;SDS011;6723;48.256;16.402;2023-07-28T13:36:55;3.13;;;2.50;;
13309;SDS011;6723;48.256;16.402;2023-07-28T13:39:21;2.87;;;2.53;;
13309;SDS011;6723;48.256;16.402;2023-07-28T13:41:48;2.30;;;2.10;;
13309;SDS011;6723;48.256;16.402;2023-07-28T13:44:15;2.50;;;2.30;;
13309;SDS011;6723;48.256;16.402;2023-07-28T13:46:41;3.17;;;2.60;;
13309;SDS011;6723;48.256;16.402;2023-07-28T13:49:07;4.57;;;3.00;;
13309;SDS011;6723;48.256;16.402;2023-07-28T13:51:32;2.57;;;2.20;;
13309;SDS011;6723;48.256;16.402;2023-07-28T13:53:58;3.63;;;2.50;;
13309;SDS011;6723;48.256;16.402;2023-07-28T13:56:24;3.73;;;2.53;;
13309;SDS011;6723;48.256;16.402;2023-07-28T13:58:49;2.83;;;2.50;;
13309;SDS011;6723;48.256;16.402;2023-07-28T14:01:15;2.60;;;2.40;;
13309;SDS011;6723;48.256;16.402;2023-07-28T14:03:41;3.00;;;2.60;;
13309;SDS011;6723;48.256;16.402;2023-07-28T14:06:07;2.50;;;2.30;;
13309;SDS011;6723;48.256;16.402;2023-07-28T14:08:33;3.23;;;2.50;;
13309;SDS011;6723;48.256;16.402;2023-07-28T14:10:58;2.70;;;2.40;;
13309;SDS011;6723;48.256;16.402;2023-07-28T14:13:24;4.53;;;2.50;;
13309;SDS011;6723;48.256;16.402;2023-07-28T14:15:50;3.10;;;2.50;;
13309;SDS011;6723;48.256;16.402;2023-07-28T14:18:16;4.13;;;2.63;;
13309;SDS011;6723;48.256;16.402;2023-07-28T14:20:42;3.93;;;2.30;;
13309;SDS011;6723;48.256;16.402;2023-07-28T14:23:29;2.40;;;2.20;;
13309;SDS011;6723;48.256;16.402;2023-07-28T14:25:54;3.63;;;2.47;;
13309;SDS011;6723;48.256;16.402;2023-07-28T14:28:20;4.40;;;2.77;;
13309;SDS011;6723;48.256;16.402;2023-07-28T14:30:47;2.93;;;2.60;;
13309;SDS011;6723;48.256;16.402;2023-07-28T14:33:15;3.17;;;2.33;;
13309;SDS011;6723;48.256;16.402;2023-07-28T14:35:45;2.37;;;2.17;;
13309;SDS011;6723;48.256;16.402;2023-07-28T14:38:12;3.27;;;2.70;;
13309;SDS011;6723;48.256;16.402;2023-07-28T14:40:38;3.90;;;2.60;;
13309;SDS011;6723;48.256;16.402;2023-07-28T14:43:05;3.00;;;2.47;;
13309;SDS011;6723;48.256;16.402;2023-07-28T14:45:31;3.33;;;2.33;;
13309;SDS011;6723;48.256;16.402;2023-07-28T14:47:57;3.23;;;2.43;;
13309;SDS011;6723;48.256;16.402;2023-07-28T14:50:23;2.50;;;2.30;;
13309;SDS011;6723;48.256;16.402;2023-07-28T14:52:49;4.83;;;2.67;;
13309;SDS011;6723;48.256;16.402;2023-07-28T14:55:14;2.43;;;2.23;;
13309;SDS011;6723;48.256;16.402;2023-07-28T14:57:40;4.40;;;3.03;;
13309;SDS011;6723;48.256;16.402;2023-07-28T15:00:06;5.00;;;2.90;;
13309;SDS011;6723;48.256;16.402;2023-07-28T15:02:34;4.00;;;2.43;;